sensor_id;sensor_type;location;lat;lon;timestamp;P1;durP1;ratioP1;P2;durP2;ratioP2
7336;SDS011;54510;42.016;23.098;2023-03-14T00:01:56;9.63;;;5.30;;
7336;SDS011;54510;42.016;23.098;2023-03-14T00:04:21;8.60;;;5.88;;
7336;SDS011;54510;42.016;23.098;2023-03-14T00:06:47;9.88;;;6.40;;
7336;SDS011;54510;42.016;23.098;2023-03-14T00:09:14;9.05;;;5.07;;
7336;SDS011;54510;42.016;23.098;2023-03-14T00:11:40;8.07;;;4.90;;
7336;SDS011;54510;42.016;23.098;2023-03-14T00:14:06;7.07;;;3.70;;
7336;SDS011;54510;42.016;23.098;2023-03-14T00:16:31;7.47;;;3.92;;
7336;SDS011;54510;42.016;23.098;2023-03-14T00:18:58;9.70;;;4.15;;
7336;SDS011;54510;42.016;23.098;2023-03-14T00:21:24;10.10;;;3.90;;
7336;SDS011;54510;42.016;23.098;2023-03-14T00:23:50;8.85;;;4.47;;
7336;SDS011;54510;42.016;23.098;2023-03-14T00:26:17;5.60;;;3.10;;
7336;SDS011;54510;42.016;23.098;2023-03-14T00:28:44;3.85;;;2.75;;
7336;SDS011;54510;42.016;23.098;2023-03-14T00:31:10;6.63;;;3.45;;
7336;SDS011;54510;42.016;23.098;2023-03-14T00:33:37;6.07;;;3.38;;
7336;SDS011;54510;42.016;23.098;2023-03-14T00:36:04;5.20;;;3.15;;
7336;SDS011;54510;42.016;23.098;2023-03-14T00:38:31;6.55;;;4.10;;
7336;SDS011;54510;42.016;23.098;2023-03-14T00:40:58;9.30;;;4.97;;
7336;SDS011;54510;42.016;23.098;2023-03-14T00:43:23;10.02;;;5.22;;
7336;SDS011;54510;42.016;23.098;2023-03-14T00:45:50;7.43;;;4.95;;
7336;SDS011;54510;42.016;23.098;2023-03-14T00:48:17;9.68;;;6.05;;
7336;SDS011;54510;42.016;23.098;2023-03-14T00:50:43;11.25;;;5.95;;
7336;SDS011;54510;42.016;23.098;2023-03-14T00:53:08;9.38;;;5.22;;
7336;SDS011;54510;42.016;23.098;2023-03-14T00:55:40;9.48;;;5.40;;
7336;SDS011;54510;42.016;23.098;2023-03-14T00:58:07;13.68;;;5.55;;
7336;SDS011;54510;42.016;23.098;2023-03-14T01:00:33;12.70;;;6.05;;
7336;SDS011;54510;42.016;23.098;2023-03-14T01:02:59;8.35;;;5.25;;
7336;SDS011;54510;42.016;23.098;2023-03-14T01:05:25;10.95;;;6.47;;
7336;SDS011;54510;42.016;23.098;2023-03-14T01:07:51;9.90;;;6.07;;
7336;SDS011;54510;42.016;23.098;2023-03-14T01:10:17;12.85;;;5.63;;
7336;SDS011;54510;42.016;23.098;2023-03-14T01:12:42;11.15;;;5.90;;
7336;SDS011;54510;42.016;23.098;2023-03-14T01:15:08;10.82;;;6.45;;
7336;SDS011;54510;42.016;23.098;2023-03-14T01:17:33;15.25;;;6.35;;
7336;SDS011;54510;42.016;23.098;2023-03-14T01:19:59;10.45;;;5.78;;
7336;SDS011;54510;42.016;23.098;2023-03-14T01:22:26;13.75;;;6.20;;
7336;SDS011;54510;42.016;23.098;2023-03-14T01:24:51;8.98;;;5.13;;
7336;SDS011;54510;42.016;23.098;2023-03-14T01:27:17;16.10;;;6.35;;
7336;SDS011;54510;42.016;23.098;2023-03-14T01:29:42;12.32;;;5.63;;
7336;SDS011;54510;42.016;23.098;2023-03-14T01:32:07;11.30;;;6.57;;
7336;SDS011;54510;42.016;23.098;2023-03-14T01:34:33;8.18;;;5.97;;
7336;SDS011;54510;42.016;23.098;2023-03-14T01:36:58;7.68;;;5.82;;
7336;SDS011;54510;42.016;23.098;2023-03-14T01:39:24;10.63;;;6.28;;
7336;SDS011;54510;42.016;23.098;2023-03-14T01:41:49;9.63;;;6.07;;
7336;SDS011;54510;42.016;23.098;2023-03-14T01:44:14;9.70;;;5.82;;
7336;SDS011;54510;42.016;23.098;2023-03-14T01:49:09;12.07;;;6.15;;
7336;SDS011;54510;42.016;23.098;2023-03-14T01:54:10;10.80;;;5.68;;
7336;SDS011;54510;42.016;23.098;2023-03-14T01:56:42;8.23;;;4.50;;
7336;SDS011;54510;42.016;23.098;2023-03-14T01:59:10;9.70;;;5.72;;
7336;SDS011;54510;42.016;23.098;2023-03-14T02:01:36;9.05;;;4.05;;
7336;SDS011;54510;42.016;23.098;2023-03-14T02:04:04;6.43;;;3.67;;
7336;SDS011;54510;42.016;23.098;2023-03-14T02:06:55;6.20;;;3.55;;
7336;SDS011;54510;42.016;23.098;2023-03-14T02:09:23;6.70;;;4.22;;
7336;SDS011;54510;42.016;23.098;2023-03-14T02:11:48;5.05;;;3.22;;
7336;SDS011;54510;42.016;23.098;2023-03-14T02:14:18;6.65;;;3.67;;
7336;SDS011;54510;42.016;23.098;2023-03-14T02:16:52;7.55;;;4.03;;
7336;SDS011;54510;42.016;23.098;2023-03-14T02:19:18;5.78;;;3.08;;
7336;SDS011;54510;42.016;23.098;2023-03-14T02:21:57;6.70;;;3.20;;
7336;SDS011;54510;42.016;23.098;2023-03-14T02:27:13;7.28;;;3.15;;
7336;SDS011;54510;42.016;23.098;2023-03-14T02:29:43;5.55;;;3.85;;
7336;SDS011;54510;42.016;23.098;2023-03-14T02:32:14;11.05;;;4.75;;
7336;SDS011;54510;42.016;23.098;2023-03-14T02:34:42;9.75;;;6.03;;
7336;SDS011;54510;42.016;23.098;2023-03-14T02:37:10;11.32;;;5.43;;
7336;SDS011;54510;42.016;23.098;2023-03-14T02:39:40;10.35;;;5.50;;
7336;SDS011;54510;42.016;23.098;2023-03-14T02:42:09;10.77;;;5.72;;
7336;SDS011;54510;42.016;23.098;2023-03-14T02:44:34;8.93;;;5.45;;
7336;SDS011;54510;42.016;23.098;2023-03-14T02:47:00;9.32;;;5.15;;
7336;SDS011;54510;42.016;23.098;2023-03-14T02:49:28;10.73;;;6.47;;
7336;SDS011;54510;42.016;23.098;2023-03-14T02:51:56;9.20;;;4.65;;
7336;SDS011;54510;42.016;23.098;2023-03-14T02:54:21;8.50;;;4.85;;
7336;SDS011;54510;42.016;23.098;2023-03-14T02:56:47;10.15;;;5.38;;
7336;SDS011;54510;42.016;23.098;2023-03-14T02:59:12;14.48;;;5.63;;
7336;SDS011;54510;42.016;23.098;2023-03-14T03:01:37;10.90;;;5.43;;
7336;SDS011;54510;42.016;23.098;2023-03-14T03:04:03;11.60;;;5.07;;
7336;SDS011;54510;42.016;23.098;2023-03-14T03:06:28;11.75;;;5.75;;
7336;SDS011;54510;42.016;23.098;2023-03-14T03:08:54;10.13;;;5.60;;
7336;SDS011;54510;42.016;23.098;2023-03-14T03:11:19;10.48;;;6.45;;
7336;SDS011;54510;42.016;23.098;2023-03-14T03:13:45;8.65;;;5.15;;
7336;SDS011;54510;42.016;23.098;2023-03-14T03:16:11;15.50;;;5.75;;
7336;SDS011;54510;42.016;23.098;2023-03-14T03:18:38;10.50;;;5.57;;
7336;SDS011;54510;42.016;23.098;2023-03-14T03:21:04;7.72;;;5.28;;
7336;SDS011;54510;42.016;23.098;2023-03-14T03:23:31;8.75;;;5.38;;
7336;SDS011;54510;42.016;23.098;2023-03-14T03:25:56;12.60;;;5.82;;
7336;SDS011;54510;42.016;23.098;2023-03-14T03:28:22;9.45;;;5.57;;
7336;SDS011;54510;42.016;23.098;2023-03-14T03:30:47;11.73;;;5.75;;
7336;SDS011;54510;42.016;23.098;2023-03-14T03:33:13;10.00;;;4.90;;
7336;SDS011;54510;42.016;23.098;2023-03-14T03:35:43;7.47;;;4.63;;
7336;SDS011;54510;42.016;23.098;2023-03-14T03:38:10;7.82;;;4.45;;
7336;SDS011;54510;42.016;23.098;2023-03-14T03:40:36;8.20;;;4.63;;
7336;SDS011;54510;42.016;23.098;2023-03-14T03:43:02;12.65;;;6.07;;
7336;SDS011;54510;42.016;23.098;2023-03-14T03:45:28;6.57;;;4.53;;
7336;SDS011;54510;42.016;23.098;2023-03-14T03:47:54;8.20;;;4.82;;
7336;SDS011;54510;42.016;23.098;2023-03-14T03:50:19;7.88;;;4.78;;
7336;SDS011;54510;42.016;23.098;2023-03-14T03:52:45;7.57;;;4.38;;
7336;SDS011;54510;42.016;23.098;2023-03-14T03:55:10;10.77;;;4.90;;
7336;SDS011;54510;42.016;23.098;2023-03-14T03:57:35;8.05;;;3.80;;
7336;SDS011;54510;42.016;23.098;2023-03-14T04:00:02;6.80;;;4.40;;
7336;SDS011;54510;42.016;23.098;2023-03-14T04:02:30;8.00;;;4.93;;
7336;SDS011;54510;42.016;23.098;2023-03-14T04:04:55;5.93;;;3.88;;
7336;SDS011;54510;42.016;23.098;2023-03-14T04:07:21;6.72;;;3.53;;
7336;SDS011;54510;42.016;23.098;2023-03-14T04:09:46;7.03;;;4.03;;
7336;SDS011;54510;42.016;23.098;2023-03-14T04:12:11;9.50;;;4.55;;
7336;SDS011;54510;42.016;23.098;2023-03-14T04:14:37;6.00;;;3.75;;
7336;SDS011;54510;42.016;23.098;2023-03-14T04:17:03;9.57;;;5.55;;
7336;SDS011;54510;42.016;23.098;2023-03-14T04:19:28;9.80;;;5.97;;
7336;SDS011;54510;42.016;23.098;2023-03-14T04:21:53;11.90;;;5.93;;
7336;SDS011;54510;42.016;23.098;2023-03-14T04:24:19;9.63;;;5.72;;
7336;SDS011;54510;42.016;23.098;2023-03-14T04:26:44;8.10;;;5.32;;
7336;SDS011;54510;42.016;23.098;2023-03-14T04:29:10;11.23;;;5.82;;
7336;SDS011;54510;42.016;23.098;2023-03-14T04:31:35;11.40;;;5.93;;
7336;SDS011;54510;42.016;23.098;2023-03-14T04:34:01;7.97;;;5.65;;
7336;SDS011;54510;42.016;23.098;2023-03-14T04:36:26;10.13;;;6.40;;
7336;SDS011;54510;42.016;23.098;2023-03-14T04:38:51;13.90;;;6.22;;
7336;SDS011;54510;42.016;23.098;2023-03-14T04:41:17;8.93;;;5.80;;
7336;SDS011;54510;42.016;23.098;2023-03-14T04:43:42;12.05;;;5.97;;
7336;SDS011;54510;42.016;23.098;2023-03-14T04:46:08;8.95;;;5.65;;
7336;SDS011;54510;42.016;23.098;2023-03-14T04:48:33;11.60;;;4.88;;
7336;SDS011;54510;42.016;23.098;2023-03-14T04:50:58;9.35;;;5.75;;
7336;SDS011;54510;42.016;23.098;2023-03-14T04:53:24;11.07;;;4.88;;
7336;SDS011;54510;42.016;23.098;2023-03-14T04:55:50;10.88;;;6.18;;
7336;SDS011;54510;42.016;23.098;2023-03-14T04:58:20;9.20;;;5.25;;
7336;SDS011;54510;42.016;23.098;2023-03-14T05:00:46;10.07;;;5.72;;
7336;SDS011;54510;42.016;23.098;2023-03-14T05:03:14;9.85;;;5.53;;
7336;SDS011;54510;42.016;23.098;2023-03-14T05:05:40;12.18;;;6.03;;
7336;SDS011;54510;42.016;23.098;2023-03-14T05:08:06;9.55;;;6.53;;
7336;SDS011;54510;42.016;23.098;2023-03-14T05:10:31;13.15;;;6.95;;
7336;SDS011;54510;42.016;23.098;2023-03-14T05:12:57;18.08;;;7.82;;
7336;SDS011;54510;42.016;23.098;2023-03-14T05:15:22;12.10;;;8.82;;
7336;SDS011;54510;42.016;23.098;2023-03-14T05:17:48;17.30;;;9.40;;
7336;SDS011;54510;42.016;23.098;2023-03-14T05:20:14;16.45;;;10.48;;
7336;SDS011;54510;42.016;23.098;2023-03-14T05:22:40;20.92;;;12.43;;
7336;SDS011;54510;42.016;23.098;2023-03-14T05:25:06;15.43;;;10.18;;
7336;SDS011;54510;42.016;23.098;2023-03-14T05:27:32;20.83;;;10.45;;
7336;SDS011;54510;42.016;23.098;2023-03-14T05:29:58;23.88;;;11.45;;
7336;SDS011;54510;42.016;23.098;2023-03-14T05:32:23;25.52;;;12.18;;
7336;SDS011;54510;42.016;23.098;2023-03-14T05:34:49;16.33;;;10.32;;
7336;SDS011;54510;42.016;23.098;2023-03-14T05:37:14;20.90;;;9.50;;
7336;SDS011;54510;42.016;23.098;2023-03-14T05:39:39;16.45;;;8.50;;
7336;SDS011;54510;42.016;23.098;2023-03-14T05:42:05;13.23;;;7.95;;
7336;SDS011;54510;42.016;23.098;2023-03-14T05:44:30;17.30;;;8.80;;
7336;SDS011;54510;42.016;23.098;2023-03-14T05:46:56;11.65;;;8.27;;
7336;SDS011;54510;42.016;23.098;2023-03-14T05:49:21;14.02;;;8.05;;
7336;SDS011;54510;42.016;23.098;2023-03-14T05:51:46;12.93;;;8.43;;
7336;SDS011;54510;42.016;23.098;2023-03-14T05:54:12;20.17;;;9.07;;
7336;SDS011;54510;42.016;23.098;2023-03-14T05:56:37;17.42;;;8.98;;
7336;SDS011;54510;42.016;23.098;2023-03-14T05:59:03;19.20;;;10.52;;
7336;SDS011;54510;42.016;23.098;2023-03-14T06:01:28;18.73;;;9.95;;
7336;SDS011;54510;42.016;23.098;2023-03-14T06:03:55;19.02;;;10.15;;
7336;SDS011;54510;42.016;23.098;2023-03-14T06:06:20;23.65;;;12.88;;
7336;SDS011;54510;42.016;23.098;2023-03-14T06:08:46;25.13;;;14.25;;
7336;SDS011;54510;42.016;23.098;2023-03-14T06:11:11;22.20;;;12.88;;
7336;SDS011;54510;42.016;23.098;2023-03-14T06:13:37;22.92;;;11.57;;
7336;SDS011;54510;42.016;23.098;2023-03-14T06:16:02;21.45;;;11.82;;
7336;SDS011;54510;42.016;23.098;2023-03-14T06:18:28;15.70;;;9.80;;
7336;SDS011;54510;42.016;23.098;2023-03-14T06:20:54;14.25;;;9.07;;
7336;SDS011;54510;42.016;23.098;2023-03-14T06:23:20;14.52;;;9.40;;
7336;SDS011;54510;42.016;23.098;2023-03-14T06:25:46;14.93;;;9.50;;
7336;SDS011;54510;42.016;23.098;2023-03-14T06:28:12;17.77;;;10.32;;
7336;SDS011;54510;42.016;23.098;2023-03-14T06:30:37;15.55;;;11.70;;
7336;SDS011;54510;42.016;23.098;2023-03-14T06:33:03;21.30;;;11.98;;
7336;SDS011;54510;42.016;23.098;2023-03-14T06:35:28;20.23;;;13.75;;
7336;SDS011;54510;42.016;23.098;2023-03-14T06:37:54;18.70;;;11.88;;
7336;SDS011;54510;42.016;23.098;2023-03-14T06:40:19;17.63;;;11.07;;
7336;SDS011;54510;42.016;23.098;2023-03-14T06:42:45;21.45;;;11.10;;
7336;SDS011;54510;42.016;23.098;2023-03-14T06:45:11;19.25;;;12.13;;
7336;SDS011;54510;42.016;23.098;2023-03-14T06:47:37;23.88;;;14.60;;
7336;SDS011;54510;42.016;23.098;2023-03-14T06:50:06;34.25;;;19.67;;
7336;SDS011;54510;42.016;23.098;2023-03-14T06:52:32;33.20;;;19.40;;
7336;SDS011;54510;42.016;23.098;2023-03-14T06:54:59;29.45;;;15.98;;
7336;SDS011;54510;42.016;23.098;2023-03-14T06:57:24;26.48;;;14.55;;
7336;SDS011;54510;42.016;23.098;2023-03-14T06:59:50;23.83;;;12.52;;
7336;SDS011;54510;42.016;23.098;2023-03-14T07:02:15;31.17;;;14.82;;
7336;SDS011;54510;42.016;23.098;2023-03-14T07:04:41;18.88;;;13.38;;
7336;SDS011;54510;42.016;23.098;2023-03-14T07:07:06;19.65;;;11.65;;
7336;SDS011;54510;42.016;23.098;2023-03-14T07:09:32;21.65;;;14.00;;
7336;SDS011;54510;42.016;23.098;2023-03-14T07:11:58;17.85;;;12.70;;
7336;SDS011;54510;42.016;23.098;2023-03-14T07:14:23;19.95;;;11.73;;
7336;SDS011;54510;42.016;23.098;2023-03-14T07:16:49;21.35;;;11.55;;
7336;SDS011;54510;42.016;23.098;2023-03-14T07:19:14;24.88;;;13.05;;
7336;SDS011;54510;42.016;23.098;2023-03-14T07:21:40;23.88;;;12.65;;
7336;SDS011;54510;42.016;23.098;2023-03-14T07:24:05;24.52;;;12.55;;
7336;SDS011;54510;42.016;23.098;2023-03-14T07:26:31;16.90;;;10.88;;
7336;SDS011;54510;42.016;23.098;2023-03-14T07:28:56;29.83;;;13.07;;
7336;SDS011;54510;42.016;23.098;2023-03-14T07:31:22;19.40;;;10.23;;
7336;SDS011;54510;42.016;23.098;2023-03-14T07:33:47;16.08;;;10.63;;
7336;SDS011;54510;42.016;23.098;2023-03-14T07:36:12;25.55;;;13.00;;
7336;SDS011;54510;42.016;23.098;2023-03-14T07:38:38;21.88;;;12.02;;
7336;SDS011;54510;42.016;23.098;2023-03-14T07:41:04;16.95;;;10.88;;
7336;SDS011;54510;42.016;23.098;2023-03-14T07:43:31;19.42;;;11.50;;
7336;SDS011;54510;42.016;23.098;2023-03-14T07:45:58;15.90;;;10.50;;
7336;SDS011;54510;42.016;23.098;2023-03-14T07:48:23;20.48;;;11.82;;
7336;SDS011;54510;42.016;23.098;2023-03-14T07:50:50;21.67;;;11.95;;
7336;SDS011;54510;42.016;23.098;2023-03-14T07:53:16;23.60;;;12.00;;
7336;SDS011;54510;42.016;23.098;2023-03-14T07:55:42;27.90;;;14.80;;
7336;SDS011;54510;42.016;23.098;2023-03-14T07:58:08;19.77;;;11.10;;
7336;SDS011;54510;42.016;23.098;2023-03-14T08:00:33;22.45;;;13.57;;
7336;SDS011;54510;42.016;23.098;2023-03-14T08:02:59;26.70;;;13.98;;
7336;SDS011;54510;42.016;23.098;2023-03-14T08:05:24;17.77;;;10.25;;
7336;SDS011;54510;42.016;23.098;2023-03-14T08:07:50;20.23;;;11.27;;
7336;SDS011;54510;42.016;23.098;2023-03-14T08:10:15;19.55;;;10.65;;
7336;SDS011;54510;42.016;23.098;2023-03-14T08:12:50;15.88;;;10.13;;
7336;SDS011;54510;42.016;23.098;2023-03-14T08:15:18;16.50;;;11.23;;
7336;SDS011;54510;42.016;23.098;2023-03-14T08:17:44;16.58;;;10.15;;
7336;SDS011;54510;42.016;23.098;2023-03-14T08:20:09;25.52;;;14.10;;
7336;SDS011;54510;42.016;23.098;2023-03-14T08:22:36;20.70;;;11.52;;
7336;SDS011;54510;42.016;23.098;2023-03-14T08:25:02;19.63;;;11.65;;
7336;SDS011;54510;42.016;23.098;2023-03-14T08:27:28;18.40;;;10.48;;
7336;SDS011;54510;42.016;23.098;2023-03-14T08:29:53;18.92;;;8.43;;
7336;SDS011;54510;42.016;23.098;2023-03-14T08:32:19;18.60;;;8.60;;
7336;SDS011;54510;42.016;23.098;2023-03-14T08:34:45;15.15;;;8.50;;
7336;SDS011;54510;42.016;23.098;2023-03-14T08:37:10;23.00;;;14.02;;
7336;SDS011;54510;42.016;23.098;2023-03-14T08:39:36;16.75;;;10.57;;
7336;SDS011;54510;42.016;23.098;2023-03-14T08:42:01;10.52;;;6.80;;
7336;SDS011;54510;42.016;23.098;2023-03-14T08:44:27;10.13;;;6.32;;
7336;SDS011;54510;42.016;23.098;2023-03-14T08:46:52;10.73;;;7.00;;
7336;SDS011;54510;42.016;23.098;2023-03-14T08:49:18;9.93;;;6.57;;
7336;SDS011;54510;42.016;23.098;2023-03-14T08:51:43;12.65;;;6.80;;
7336;SDS011;54510;42.016;23.098;2023-03-14T08:54:09;11.05;;;7.32;;
7336;SDS011;54510;42.016;23.098;2023-03-14T08:56:35;11.07;;;7.22;;
7336;SDS011;54510;42.016;23.098;2023-03-14T08:59:03;12.73;;;7.18;;
7336;SDS011;54510;42.016;23.098;2023-03-14T09:01:28;23.42;;;15.02;;
7336;SDS011;54510;42.016;23.098;2023-03-14T09:03:54;15.50;;;8.60;;
7336;SDS011;54510;42.016;23.098;2023-03-14T09:06:19;18.58;;;8.15;;
7336;SDS011;54510;42.016;23.098;2023-03-14T09:08:45;13.98;;;7.38;;
7336;SDS011;54510;42.016;23.098;2023-03-14T09:11:10;11.73;;;7.30;;
7336;SDS011;54510;42.016;23.098;2023-03-14T09:13:36;11.43;;;7.35;;
7336;SDS011;54510;42.016;23.098;2023-03-14T09:16:02;11.13;;;6.93;;
7336;SDS011;54510;42.016;23.098;2023-03-14T09:18:27;16.42;;;9.93;;
7336;SDS011;54510;42.016;23.098;2023-03-14T09:20:53;14.00;;;7.90;;
7336;SDS011;54510;42.016;23.098;2023-03-14T09:23:20;10.85;;;7.30;;
7336;SDS011;54510;42.016;23.098;2023-03-14T09:25:45;13.32;;;6.40;;
7336;SDS011;54510;42.016;23.098;2023-03-14T09:28:11;14.77;;;4.30;;
7336;SDS011;54510;42.016;23.098;2023-03-14T09:30:36;19.63;;;8.57;;
7336;SDS011;54510;42.016;23.098;2023-03-14T09:33:01;10.32;;;5.53;;
7336;SDS011;54510;42.016;23.098;2023-03-14T09:35:27;13.32;;;8.20;;
7336;SDS011;54510;42.016;23.098;2023-03-14T09:37:52;9.65;;;4.25;;
7336;SDS011;54510;42.016;23.098;2023-03-14T09:40:18;7.68;;;4.55;;
7336;SDS011;54510;42.016;23.098;2023-03-14T09:42:45;10.55;;;5.47;;
7336;SDS011;54510;42.016;23.098;2023-03-14T09:45:35;7.10;;;3.75;;
7336;SDS011;54510;42.016;23.098;2023-03-14T09:48:05;5.88;;;3.22;;
7336;SDS011;54510;42.016;23.098;2023-03-14T09:50:41;15.38;;;8.13;;
7336;SDS011;54510;42.016;23.098;2023-03-14T09:53:16;4.85;;;2.90;;
7336;SDS011;54510;42.016;23.098;2023-03-14T09:55:48;5.63;;;3.47;;
7336;SDS011;54510;42.016;23.098;2023-03-14T09:58:19;6.75;;;3.30;;
7336;SDS011;54510;42.016;23.098;2023-03-14T10:00:45;4.65;;;2.20;;
7336;SDS011;54510;42.016;23.098;2023-03-14T10:05:37;9.15;;;2.78;;
7336;SDS011;54510;42.016;23.098;2023-03-14T10:08:03;5.97;;;3.03;;
7336;SDS011;54510;42.016;23.098;2023-03-14T10:10:29;7.82;;;2.28;;
7336;SDS011;54510;42.016;23.098;2023-03-14T10:13:15;4.32;;;2.70;;
7336;SDS011;54510;42.016;23.098;2023-03-14T10:15:47;2.95;;;1.83;;
7336;SDS011;54510;42.016;23.098;2023-03-14T10:18:20;4.15;;;2.53;;
7336;SDS011;54510;42.016;23.098;2023-03-14T10:20:49;2.25;;;1.65;;
7336;SDS011;54510;42.016;23.098;2023-03-14T10:23:27;9.95;;;2.55;;
7336;SDS011;54510;42.016;23.098;2023-03-14T10:26:14;4.90;;;2.80;;
7336;SDS011;54510;42.016;23.098;2023-03-14T10:31:09;7.47;;;4.80;;
7336;SDS011;54510;42.016;23.098;2023-03-14T10:33:35;15.73;;;8.48;;
7336;SDS011;54510;42.016;23.098;2023-03-14T10:38:42;21.75;;;11.95;;
7336;SDS011;54510;42.016;23.098;2023-03-14T10:41:16;15.48;;;7.95;;
7336;SDS011;54510;42.016;23.098;2023-03-14T10:43:49;12.18;;;6.45;;
7336;SDS011;54510;42.016;23.098;2023-03-14T10:46:18;8.10;;;3.58;;
7336;SDS011;54510;42.016;23.098;2023-03-14T10:48:45;5.00;;;2.17;;
7336;SDS011;54510;42.016;23.098;2023-03-14T10:56:18;8.80;;;3.22;;
7336;SDS011;54510;42.016;23.098;2023-03-14T10:58:46;5.93;;;2.65;;
7336;SDS011;54510;42.016;23.098;2023-03-14T11:07:08;7.07;;;2.80;;
7336;SDS011;54510;42.016;23.098;2023-03-14T11:12:34;4.78;;;1.98;;
7336;SDS011;54510;42.016;23.098;2023-03-14T11:15:02;3.20;;;1.73;;
7336;SDS011;54510;42.016;23.098;2023-03-14T11:17:36;8.45;;;4.80;;
7336;SDS011;54510;42.016;23.098;2023-03-14T11:20:22;6.78;;;3.17;;
7336;SDS011;54510;42.016;23.098;2023-03-14T11:28:39;11.80;;;2.85;;
7336;SDS011;54510;42.016;23.098;2023-03-14T11:36:39;2.33;;;1.70;;
7336;SDS011;54510;42.016;23.098;2023-03-14T11:39:18;4.75;;;2.40;;
7336;SDS011;54510;42.016;23.098;2023-03-14T11:41:54;5.90;;;2.72;;
7336;SDS011;54510;42.016;23.098;2023-03-14T11:44:29;4.93;;;2.63;;
7336;SDS011;54510;42.016;23.098;2023-03-14T11:47:09;5.22;;;2.45;;
7336;SDS011;54510;42.016;23.098;2023-03-14T11:49:45;7.00;;;2.88;;
7336;SDS011;54510;42.016;23.098;2023-03-14T11:52:29;3.75;;;2.30;;
7336;SDS011;54510;42.016;23.098;2023-03-14T11:57:46;7.10;;;3.17;;
7336;SDS011;54510;42.016;23.098;2023-03-14T12:00:18;4.40;;;2.35;;
7336;SDS011;54510;42.016;23.098;2023-03-14T12:03:01;6.35;;;2.35;;
7336;SDS011;54510;42.016;23.098;2023-03-14T12:19:29;6.03;;;1.85;;
7336;SDS011;54510;42.016;23.098;2023-03-14T12:22:43;5.68;;;2.10;;
7336;SDS011;54510;42.016;23.098;2023-03-14T12:25:05;8.65;;;2.78;;
7336;SDS011;54510;42.016;23.098;2023-03-14T12:30:18;3.97;;;2.42;;
7336;SDS011;54510;42.016;23.098;2023-03-14T12:38:10;4.60;;;2.28;;
7336;SDS011;54510;42.016;23.098;2023-03-14T12:40:52;7.43;;;2.35;;
7336;SDS011;54510;42.016;23.098;2023-03-14T12:43:30;5.40;;;2.63;;
7336;SDS011;54510;42.016;23.098;2023-03-14T12:51:35;4.30;;;1.60;;
7336;SDS011;54510;42.016;23.098;2023-03-14T13:02:59;8.70;;;5.32;;
7336;SDS011;54510;42.016;23.098;2023-03-14T13:15:33;3.40;;;2.28;;
7336;SDS011;54510;42.016;23.098;2023-03-14T13:21:02;3.17;;;2.08;;
7336;SDS011;54510;42.016;23.098;2023-03-14T13:23:30;7.20;;;2.85;;
7336;SDS011;54510;42.016;23.098;2023-03-14T13:25:58;5.07;;;2.53;;
7336;SDS011;54510;42.016;23.098;2023-03-14T13:28:25;4.10;;;2.30;;
7336;SDS011;54510;42.016;23.098;2023-03-14T13:30:55;3.63;;;2.20;;
7336;SDS011;54510;42.016;23.098;2023-03-14T13:33:23;4.07;;;2.60;;
7336;SDS011;54510;42.016;23.098;2023-03-14T13:35:53;4.22;;;2.50;;
7336;SDS011;54510;42.016;23.098;2023-03-14T13:38:20;5.20;;;2.65;;
7336;SDS011;54510;42.016;23.098;2023-03-14T13:40:48;4.07;;;2.15;;
7336;SDS011;54510;42.016;23.098;2023-03-14T13:43:23;3.47;;;2.15;;
7336;SDS011;54510;42.016;23.098;2023-03-14T13:48:30;8.45;;;2.97;;
